createdAt,value
2018-08-06T00:00:32.603Z,17.50
2018-08-06T00:03:02.011Z,17.40
2018-08-06T00:05:31.375Z,17.20
2018-08-06T00:08:00.762Z,17.30
2018-08-06T00:10:30.155Z,17.40
2018-08-06T00:12:59.614Z,17.20
2018-08-06T00:15:29.026Z,17.20
2018-08-06T00:17:58.378Z,17.20
2018-08-06T00:20:27.748Z,16.90
2018-08-06T00:22:57.190Z,16.80
2018-08-06T00:25:26.539Z,17.00
2018-08-06T00:27:55.890Z,16.90
2018-08-06T00:30:25.214Z,16.90
2018-08-06T00:32:54.566Z,17.10
2018-08-06T00:35:23.922Z,16.80
2018-08-06T00:37:53.244Z,16.70
2018-08-06T00:40:22.594Z,16.50
2018-08-06T00:42:52.011Z,16.40
2018-08-06T00:45:21.969Z,16.50
2018-08-06T00:47:51.355Z,16.40
2018-08-06T00:52:49.626Z,16.40
2018-08-06T00:55:20.062Z,16.60
2018-08-06T00:57:49.431Z,16.40
2018-08-06T01:00:20.007Z,16.40
2018-08-06T01:02:49.469Z,16.30
2018-08-06T01:05:18.977Z,16.40
2018-08-06T01:07:48.381Z,16.60
2018-08-06T01:10:18.925Z,16.40
2018-08-06T01:12:48.318Z,16.10
2018-08-06T01:15:19.037Z,16.10
2018-08-06T01:17:48.425Z,16.10
2018-08-06T01:20:17.800Z,16.10
2018-08-06T01:22:47.196Z,15.90
2018-08-06T01:25:16.621Z,16.00
2018-08-06T01:27:45.995Z,15.90
2018-08-06T01:30:15.783Z,16.00
2018-08-06T01:32:45.185Z,16.00
2018-08-06T01:35:14.594Z,15.80
2018-08-06T01:37:43.951Z,15.90
2018-08-06T01:40:14.621Z,16.00
2018-08-06T01:42:44.015Z,15.60
2018-08-06T01:45:16.009Z,15.50
2018-08-06T01:47:45.619Z,15.50
2018-08-06T01:50:15.848Z,15.60
2018-08-06T01:52:45.202Z,15.50
2018-08-06T01:55:14.588Z,15.50
2018-08-06T01:57:43.917Z,15.50
2018-08-06T02:00:15.239Z,15.10
2018-08-06T02:02:44.706Z,15.00
2018-08-06T02:05:14.039Z,15.20
2018-08-06T02:07:43.451Z,15.10
2018-08-06T02:10:15.046Z,15.30
2018-08-06T02:12:45.085Z,15.40
2018-08-06T02:15:14.487Z,15.20
2018-08-06T02:17:43.911Z,15.30
2018-08-06T02:20:15.956Z,15.30
2018-08-06T02:25:15.874Z,15.20
2018-08-06T02:27:45.400Z,15.00
2018-08-06T02:30:15.694Z,15.10
2018-08-06T02:32:45.068Z,14.90
2018-08-06T02:35:15.238Z,14.90
2018-08-06T02:37:44.841Z,14.90
2018-08-06T02:40:21.832Z,15.00
2018-08-06T02:42:51.209Z,15.20
2018-08-06T02:45:20.602Z,15.10
2018-08-06T02:47:50.005Z,15.00
2018-08-06T02:50:19.397Z,15.00
2018-08-06T02:52:48.776Z,15.00
2018-08-06T02:55:18.127Z,15.00
2018-08-06T02:57:48.494Z,15.00
2018-08-06T03:00:18.461Z,14.90
2018-08-06T03:02:48.303Z,14.90
2018-08-06T03:05:18.930Z,14.90
2018-08-06T03:07:48.532Z,14.90
2018-08-06T03:10:17.837Z,14.80
2018-08-06T03:12:47.628Z,14.80
2018-08-06T03:15:17.026Z,14.90
2018-08-06T03:17:46.380Z,14.80
2018-08-06T03:20:15.736Z,14.60
2018-08-06T03:22:45.082Z,14.70
2018-08-06T03:25:15.588Z,14.60
2018-08-06T03:27:45.410Z,14.50
2018-08-06T03:30:16.320Z,14.60
2018-08-06T03:32:46.982Z,14.60
2018-08-06T03:35:16.410Z,14.60
2018-08-06T03:37:45.776Z,14.60
2018-08-06T03:40:15.190Z,14.70
2018-08-06T03:42:44.579Z,14.60
2018-08-06T03:47:43.509Z,14.30
2018-08-06T03:50:13.798Z,14.30
2018-08-06T03:52:43.563Z,14.40
2018-08-06T03:55:12.952Z,14.20
2018-08-06T03:57:42.448Z,14.00
2018-08-06T04:00:13.338Z,14.10
2018-08-06T04:02:43.173Z,14.10
2018-08-06T04:05:14.615Z,14.00
2018-08-06T04:07:44.058Z,14.10
2018-08-06T04:10:15.446Z,14.10
2018-08-06T04:12:44.922Z,14.30
2018-08-06T04:15:14.309Z,14.30
2018-08-06T04:17:43.990Z,14.10
2018-08-06T04:20:13.906Z,14.10
2018-08-06T04:22:43.996Z,14.00
2018-08-06T04:25:13.477Z,13.90
2018-08-06T04:27:42.905Z,14.10
2018-08-06T04:30:14.633Z,14.10
2018-08-06T04:32:45.170Z,13.90
2018-08-06T04:35:14.846Z,14.00
2018-08-06T04:37:44.839Z,14.30
2018-08-06T04:40:14.406Z,14.20
2018-08-06T04:42:44.061Z,14.20
2018-08-06T04:45:13.479Z,14.20
2018-08-06T04:47:43.057Z,14.40
2018-08-06T04:50:14.027Z,14.50
2018-08-06T04:52:44.538Z,14.40
2018-08-06T04:55:14.812Z,14.70
2018-08-06T04:57:44.277Z,14.50
2018-08-06T05:00:15.031Z,14.60
2018-08-06T05:02:44.823Z,14.70
2018-08-06T05:05:14.200Z,14.60
2018-08-06T05:07:43.541Z,14.70
2018-08-06T05:10:12.947Z,14.70
2018-08-06T05:12:43.370Z,14.70
2018-08-06T05:15:12.701Z,15.00
2018-08-06T05:17:42.092Z,15.00
2018-08-06T05:20:11.601Z,15.00
2018-08-06T05:22:41.133Z,15.20
2018-08-06T05:25:10.493Z,15.40
2018-08-06T05:27:39.979Z,15.70
2018-08-06T05:30:11.237Z,15.90
2018-08-06T05:32:40.593Z,16.10
2018-08-06T05:35:09.966Z,16.40
2018-08-06T05:37:39.445Z,16.70
2018-08-06T05:40:09.330Z,17.10
2018-08-06T05:42:38.717Z,17.30
2018-08-06T05:45:09.258Z,17.60
2018-08-06T05:47:38.758Z,18.00
2018-08-06T05:50:10.453Z,18.40
2018-08-06T05:52:39.891Z,18.60
2018-08-06T05:55:10.211Z,18.70
2018-08-06T05:57:40.424Z,19.00
2018-08-06T06:00:16.427Z,19.30
2018-08-06T06:02:46.490Z,19.50
2018-08-06T06:05:16.064Z,19.60
2018-08-06T06:07:45.523Z,19.50
2018-08-06T06:10:15.706Z,20.10
2018-08-06T06:12:45.178Z,20.50
2018-08-06T06:15:16.069Z,20.50
2018-08-06T06:17:45.539Z,21.00
2018-08-06T06:20:14.949Z,20.80
2018-08-06T06:22:44.574Z,21.20
2018-08-06T06:25:14.476Z,21.30
2018-08-06T06:27:44.322Z,21.30
2018-08-06T06:30:16.046Z,21.30
2018-08-06T06:32:45.608Z,21.30
2018-08-06T06:35:15.064Z,22.30
2018-08-06T06:37:44.797Z,22.00
2018-08-06T06:40:14.753Z,22.20
2018-08-06T06:42:44.273Z,22.20
2018-08-06T06:45:13.720Z,22.90
2018-08-06T06:47:43.181Z,22.90
2018-08-06T06:50:12.590Z,22.90
2018-08-06T06:52:42.010Z,23.30
2018-08-06T06:55:12.894Z,23.00
2018-08-06T06:57:42.944Z,23.50
2018-08-06T07:00:12.748Z,22.90
2018-08-06T07:02:42.824Z,23.30
2018-08-06T07:05:12.231Z,23.70
2018-08-06T07:07:41.702Z,23.70
2018-08-06T07:10:12.571Z,23.50
2018-08-06T07:12:42.375Z,23.00
2018-08-06T07:15:14.452Z,23.20
2018-08-06T07:17:46.005Z,23.50
2018-08-06T07:20:16.782Z,24.00
2018-08-06T07:22:46.191Z,24.50
2018-08-06T07:25:15.773Z,24.50
2018-08-06T07:27:45.217Z,23.90
2018-08-06T07:30:15.751Z,24.70
2018-08-06T07:32:45.530Z,25.00
2018-08-06T07:35:15.511Z,24.70
2018-08-06T07:37:44.887Z,25.10
2018-08-06T07:40:15.304Z,25.20
2018-08-06T07:42:44.734Z,24.80
2018-08-06T07:45:16.488Z,25.50
2018-08-06T07:47:46.797Z,24.90
2018-08-06T07:50:17.797Z,25.80
2018-08-06T07:52:47.679Z,26.20
2018-08-06T07:55:17.635Z,26.00
2018-08-06T07:57:47.533Z,26.00
2018-08-06T08:00:18.560Z,25.70
2018-08-06T08:02:48.148Z,26.00
2018-08-06T08:05:18.596Z,26.00
2018-08-06T08:07:48.793Z,25.90
2018-08-06T08:10:24.015Z,26.80
2018-08-06T08:12:53.778Z,26.30
2018-08-06T08:15:25.100Z,26.30
2018-08-06T08:20:24.617Z,25.90
2018-08-06T08:22:53.978Z,26.60
2018-08-06T08:25:23.870Z,26.70
2018-08-06T08:27:53.435Z,27.00
2018-08-06T08:30:22.900Z,27.20
2018-08-06T08:32:52.628Z,27.10
2018-08-06T08:35:28.295Z,27.00
2018-08-06T08:37:58.067Z,27.40
2018-08-06T08:40:27.725Z,28.30
2018-08-06T08:42:57.361Z,27.90
2018-08-06T08:45:27.058Z,27.70
2018-08-06T08:47:56.815Z,27.70
2018-08-06T08:50:26.362Z,28.10
2018-08-06T08:52:55.855Z,28.00
2018-08-06T08:55:25.375Z,27.90
2018-08-06T08:57:55.055Z,27.90
2018-08-06T09:00:24.714Z,28.40
2018-08-06T09:02:54.204Z,28.10
2018-08-06T09:05:23.859Z,27.40
2018-08-06T09:07:54.010Z,28.30
2018-08-06T09:10:23.697Z,28.30
2018-08-06T09:12:53.222Z,28.40
2018-08-06T09:15:25.643Z,28.20
2018-08-06T09:17:55.292Z,28.50
2018-08-06T09:20:25.699Z,28.70
2018-08-06T09:22:55.465Z,28.10
2018-08-06T09:25:25.058Z,28.10
2018-08-06T09:27:54.809Z,28.50
2018-08-06T09:30:25.185Z,28.70
2018-08-06T09:32:55.992Z,28.60
2018-08-06T09:35:25.457Z,28.30
2018-08-06T09:37:55.162Z,28.60
2018-08-06T09:40:25.073Z,28.60
2018-08-06T09:42:54.829Z,28.90
2018-08-06T09:45:24.682Z,29.30
2018-08-06T09:47:55.043Z,29.10
2018-08-06T09:50:24.594Z,29.00
2018-08-06T09:52:54.846Z,28.90
2018-08-06T09:55:27.483Z,29.10
2018-08-06T09:57:56.998Z,29.10
2018-08-06T10:01:32.881Z,29.10
2018-08-06T10:04:02.226Z,29.20
2018-08-06T10:06:31.855Z,29.10
2018-08-06T10:09:01.404Z,29.40
2018-08-06T10:11:30.783Z,30.00
2018-08-06T10:14:00.352Z,29.50
2018-08-06T10:16:29.794Z,29.50
2018-08-06T10:18:59.444Z,29.30
2018-08-06T10:21:28.986Z,30.20
2018-08-06T10:23:58.683Z,30.50
2018-08-06T10:26:28.698Z,30.70
2018-08-06T10:28:58.357Z,30.20
2018-08-06T10:31:27.796Z,29.80
2018-08-06T10:33:57.467Z,30.40
2018-08-06T10:36:26.994Z,31.00
2018-08-06T10:38:56.561Z,30.80
2018-08-06T10:41:26.080Z,30.10
2018-08-06T10:43:55.689Z,30.80
2018-08-06T10:46:25.231Z,30.60
2018-08-06T10:48:54.958Z,30.10
2018-08-06T10:51:24.441Z,30.00
2018-08-06T10:53:53.846Z,30.70
2018-08-06T10:56:23.218Z,30.50
2018-08-06T10:58:52.613Z,31.00
2018-08-06T11:01:22.004Z,32.00
2018-08-06T11:03:51.417Z,31.20
2018-08-06T11:06:20.779Z,30.90
2018-08-06T11:08:50.203Z,30.60
2018-08-06T11:11:19.535Z,31.20
2018-08-06T11:13:48.892Z,31.70
2018-08-06T11:16:18.336Z,31.70
2018-08-06T11:18:47.675Z,31.20
2018-08-06T11:21:17.029Z,30.30
2018-08-06T11:23:46.381Z,30.70
2018-08-06T11:26:15.814Z,31.10
2018-08-06T11:28:45.252Z,31.30
2018-08-06T11:31:14.594Z,31.70
2018-08-06T11:33:44.038Z,31.90
2018-08-06T11:36:13.485Z,31.40
2018-08-06T11:38:42.873Z,31.00
2018-08-06T11:41:12.294Z,31.50
2018-08-06T11:43:41.733Z,32.00
2018-08-06T11:46:14.088Z,32.20
2018-08-06T11:48:44.693Z,31.60
2018-08-06T11:51:14.682Z,32.30
2018-08-06T11:53:44.438Z,32.10
2018-08-06T11:56:14.257Z,32.50
2018-08-06T11:58:43.859Z,33.10
2018-08-06T12:01:13.355Z,32.40
2018-08-06T12:03:45.736Z,32.80
2018-08-06T12:06:15.767Z,32.50
2018-08-06T12:11:15.653Z,32.10
2018-08-06T12:13:45.456Z,31.60
2018-08-06T12:16:21.511Z,32.00
2018-08-06T12:18:51.195Z,32.60
2018-08-06T12:21:20.767Z,33.10
2018-08-06T12:23:50.451Z,32.30
2018-08-06T12:26:20.216Z,32.30
2018-08-06T12:28:49.604Z,32.30
2018-08-06T12:31:19.063Z,32.00
2018-08-06T12:33:48.487Z,32.20
2018-08-06T12:36:17.838Z,32.90
2018-08-06T12:39:18.358Z,32.80
2018-08-06T12:41:47.741Z,33.60
2018-08-06T12:44:17.356Z,33.90
2018-08-06T12:46:47.605Z,32.90
2018-08-06T12:49:17.583Z,32.60
2018-08-06T12:51:47.331Z,32.80
2018-08-06T12:54:16.782Z,32.50
2018-08-06T12:56:46.427Z,33.40
2018-08-06T12:59:15.928Z,33.80
2018-08-06T13:01:45.536Z,34.40
2018-08-06T13:04:15.205Z,34.40
2018-08-06T13:06:44.609Z,34.30
2018-08-06T13:09:16.231Z,34.30
2018-08-06T13:11:46.695Z,33.90
2018-08-06T13:14:16.338Z,34.40
2018-08-06T13:16:45.790Z,33.20
2018-08-06T13:19:15.332Z,33.50
2018-08-06T13:21:45.648Z,33.10
2018-08-06T13:24:15.242Z,32.60
2018-08-06T13:26:44.651Z,33.60
2018-08-06T13:29:14.053Z,33.20
2018-08-06T13:31:43.483Z,33.40
2018-08-06T13:34:13.023Z,33.90
2018-08-06T13:36:43.291Z,33.40
2018-08-06T13:39:12.791Z,33.80
2018-08-06T13:41:42.243Z,34.20
2018-08-06T13:44:12.777Z,34.00
2018-08-06T13:46:42.339Z,34.70
2018-08-06T13:49:12.185Z,34.00
2018-08-06T13:51:46.506Z,33.40
2018-08-06T13:54:20.767Z,33.40
2018-08-06T13:56:50.982Z,33.90
2018-08-06T13:59:20.553Z,33.60
2018-08-06T14:01:50.047Z,33.20
2018-08-06T14:04:20.889Z,33.30
2018-08-06T14:06:50.405Z,33.40
2018-08-06T14:09:20.057Z,34.10
2018-08-06T14:11:50.701Z,34.50
2018-08-06T14:14:20.106Z,34.70
2018-08-06T14:16:49.675Z,33.90
2018-08-06T14:19:19.187Z,33.60
2018-08-06T14:21:48.733Z,32.60
2018-08-06T14:24:19.493Z,33.00
2018-08-06T14:26:48.975Z,32.90
2018-08-06T14:29:18.505Z,32.90
2018-08-06T14:31:48.056Z,33.40
2018-08-06T14:34:17.916Z,33.40
2018-08-06T14:36:47.381Z,33.60
2018-08-06T14:39:16.807Z,33.50
2018-08-06T14:41:46.397Z,33.40
2018-08-06T14:44:15.799Z,33.60
2018-08-06T14:46:45.282Z,34.10
2018-08-06T14:49:14.792Z,33.40
2018-08-06T14:51:44.359Z,33.80
2018-08-06T14:54:13.933Z,33.40
2018-08-06T14:56:43.535Z,33.30
2018-08-06T14:59:13.731Z,33.60
2018-08-06T15:01:43.715Z,33.60
2018-08-06T15:04:13.619Z,33.60
2018-08-06T15:06:43.075Z,33.90
2018-08-06T15:09:13.757Z,34.10
2018-08-06T15:11:43.886Z,33.30
2018-08-06T15:14:15.230Z,33.80
2018-08-06T15:16:45.007Z,34.10
2018-08-06T15:19:14.890Z,33.70
2018-08-06T15:21:44.266Z,33.80
2018-08-06T15:24:13.975Z,33.00
2018-08-06T15:26:44.026Z,33.00
2018-08-06T15:29:13.497Z,32.90
2018-08-06T15:31:43.065Z,33.40
2018-08-06T15:34:13.166Z,33.60
2018-08-06T15:36:42.770Z,33.90
2018-08-06T15:39:14.462Z,33.80
2018-08-06T15:44:13.938Z,33.50
2018-08-06T15:49:12.544Z,33.20
2018-08-06T15:51:42.216Z,33.10
2018-08-06T15:54:14.032Z,32.90
2018-08-06T15:56:43.703Z,33.10
2018-08-06T15:59:13.442Z,33.10
2018-08-06T16:01:42.969Z,33.20
2018-08-06T16:04:12.636Z,33.10
2018-08-06T16:06:42.559Z,33.30
2018-08-06T16:09:12.301Z,33.40
2018-08-06T16:11:41.876Z,32.60
2018-08-06T16:14:11.390Z,32.80
2018-08-06T16:16:41.164Z,33.00
2018-08-06T16:19:11.310Z,32.80
2018-08-06T16:21:41.000Z,32.80
2018-08-06T16:24:10.441Z,32.90
2018-08-06T16:26:40.254Z,32.80
2018-08-06T16:29:09.883Z,32.90
2018-08-06T16:31:39.595Z,32.60
2018-08-06T16:34:09.082Z,32.70
2018-08-06T16:36:38.638Z,32.60
2018-08-06T16:39:11.745Z,32.40
2018-08-06T16:41:41.387Z,32.50
2018-08-06T16:44:11.578Z,32.50
2018-08-06T16:46:41.580Z,32.80
2018-08-06T16:49:12.242Z,32.80
2018-08-06T16:51:41.844Z,33.10
2018-08-06T16:54:11.630Z,33.10
2018-08-06T16:56:41.237Z,32.90
2018-08-06T16:59:10.892Z,32.50
2018-08-06T17:01:40.485Z,32.60
2018-08-06T17:04:10.554Z,32.50
2018-08-06T17:06:40.515Z,32.60
2018-08-06T17:09:10.937Z,32.60
2018-08-06T17:11:40.570Z,32.30
2018-08-06T17:14:10.399Z,32.30
2018-08-06T17:16:40.086Z,32.30
2018-08-06T17:19:11.632Z,32.10
2018-08-06T17:21:41.296Z,32.00
2018-08-06T17:24:11.109Z,32.00
2018-08-06T17:26:40.830Z,31.90
2018-08-06T17:29:11.271Z,31.80
2018-08-06T17:31:40.813Z,31.70
2018-08-06T17:34:10.393Z,31.70
2018-08-06T17:36:39.825Z,31.70
2018-08-06T17:39:11.416Z,31.60
2018-08-06T17:41:41.172Z,31.40
2018-08-06T17:44:10.966Z,31.40
2018-08-06T17:46:40.755Z,31.30
2018-08-06T17:49:10.624Z,31.30
2018-08-06T17:51:40.179Z,31.40
2018-08-06T17:54:09.956Z,31.40
2018-08-06T17:56:39.589Z,31.20
2018-08-06T18:01:38.461Z,30.80
2018-08-06T18:04:08.204Z,30.90
2018-08-06T18:06:37.971Z,30.90
2018-08-06T18:09:10.995Z,30.80
2018-08-06T18:14:09.575Z,30.50
2018-08-06T18:16:39.385Z,30.70
2018-08-06T18:19:09.017Z,30.60
2018-08-06T18:21:38.437Z,30.70
2018-08-06T18:24:07.848Z,30.70
2018-08-06T18:26:37.251Z,30.70
2018-08-06T18:29:06.593Z,30.80
2018-08-06T18:31:35.946Z,30.80
2018-08-06T18:34:05.458Z,30.30
2018-08-06T18:36:34.855Z,30.20
2018-08-06T18:39:06.547Z,30.20
2018-08-06T18:41:36.051Z,30.20
2018-08-06T18:44:05.572Z,30.40
2018-08-06T18:46:36.082Z,30.50
2018-08-06T18:49:05.733Z,30.50
2018-08-06T18:51:35.287Z,30.40
2018-08-06T18:54:04.785Z,30.40
2018-08-06T18:56:34.225Z,30.00
2018-08-06T18:59:03.627Z,30.00
2018-08-06T19:01:33.025Z,30.00
2018-08-06T19:04:02.454Z,29.70
2018-08-06T19:06:31.834Z,29.70
2018-08-06T19:09:01.274Z,29.80
2018-08-06T19:11:30.732Z,29.50
2018-08-06T19:14:05.383Z,29.50
2018-08-06T19:16:34.705Z,29.40
2018-08-06T19:21:38.526Z,28.90
2018-08-06T19:25:15.645Z,28.70
2018-08-06T19:27:55.989Z,28.60
2018-08-06T19:30:30.720Z,28.60
2018-08-06T19:33:00.629Z,28.30
2018-08-06T19:35:30.054Z,28.30
2018-08-06T19:37:59.403Z,28.00
2018-08-06T19:40:28.754Z,27.80
2018-08-06T19:43:03.468Z,27.80
2018-08-06T19:45:32.889Z,27.30
2018-08-06T19:48:02.456Z,27.20
2018-08-06T19:53:07.104Z,27.30
2018-08-06T19:58:10.673Z,27.00
2018-08-06T20:00:40.001Z,26.90
2018-08-06T20:03:09.431Z,26.70
2018-08-06T20:05:38.787Z,26.50
2018-08-06T20:08:08.258Z,26.60
2018-08-06T20:10:37.733Z,26.70
2018-08-06T20:13:07.100Z,26.40
2018-08-06T20:15:36.471Z,26.20
2018-08-06T20:18:05.966Z,25.70
2018-08-06T20:20:35.401Z,25.80
2018-08-06T20:23:04.844Z,25.50
2018-08-06T20:25:34.218Z,25.50
2018-08-06T20:28:03.618Z,25.40
2018-08-06T20:30:32.966Z,25.30
2018-08-06T20:33:02.331Z,25.30
2018-08-06T20:35:31.756Z,25.00
2018-08-06T20:38:01.064Z,25.20
2018-08-06T20:40:30.458Z,25.10
2018-08-06T20:42:59.883Z,25.10
2018-08-06T20:45:29.234Z,25.20
2018-08-06T20:47:58.589Z,25.10
2018-08-06T20:50:28.036Z,25.00
2018-08-06T20:52:57.397Z,25.00
2018-08-06T20:55:26.787Z,25.00
2018-08-06T20:57:56.176Z,24.80
2018-08-06T21:00:26.210Z,24.70
2018-08-06T21:02:55.598Z,24.60
2018-08-06T21:05:24.993Z,24.40
2018-08-06T21:07:54.390Z,24.30
2018-08-06T21:10:23.764Z,24.20
2018-08-06T21:12:53.111Z,24.20
2018-08-06T21:15:22.594Z,23.90
2018-08-06T21:17:51.954Z,23.80
2018-08-06T21:20:21.477Z,23.50
2018-08-06T21:22:50.814Z,23.20
2018-08-06T21:25:20.247Z,23.20
2018-08-06T21:27:49.593Z,23.30
2018-08-06T21:30:20.955Z,23.60
2018-08-06T21:32:53.786Z,23.20
2018-08-06T21:35:24.431Z,23.10
2018-08-06T21:37:54.619Z,23.10
2018-08-06T21:40:24.777Z,22.90
2018-08-06T21:42:54.223Z,22.70
2018-08-06T21:45:23.570Z,22.60
2018-08-06T21:47:53.012Z,22.70
2018-08-06T21:50:22.456Z,22.40
2018-08-06T21:52:51.832Z,22.40
2018-08-06T21:55:21.224Z,22.30
2018-08-06T21:57:50.636Z,22.30
2018-08-06T22:00:38.302Z,22.30
2018-08-06T22:03:09.850Z,22.40
2018-08-06T22:05:39.262Z,22.20
2018-08-06T22:10:37.593Z,22.20
2018-08-06T22:13:07.498Z,22.20
2018-08-06T22:15:36.891Z,22.10
2018-08-06T22:18:06.662Z,21.80
2018-08-06T22:20:36.019Z,21.70
2018-08-06T22:23:05.489Z,21.90
2018-08-06T22:25:34.861Z,22.00
2018-08-06T22:28:04.389Z,21.80
2018-08-06T22:30:33.734Z,21.80
2018-08-06T22:33:03.123Z,21.80
2018-08-06T22:35:32.479Z,21.80
2018-08-06T22:38:01.826Z,21.50
2018-08-06T22:40:31.165Z,21.60
2018-08-06T22:43:00.557Z,21.70
2018-08-06T22:45:29.881Z,21.60
2018-08-06T22:47:59.224Z,21.30
2018-08-06T22:50:28.555Z,21.20
2018-08-06T22:52:57.893Z,21.20
2018-08-06T22:55:27.228Z,21.10
2018-08-06T22:57:56.573Z,20.80
2018-08-06T23:00:25.977Z,20.60
2018-08-06T23:02:55.278Z,20.70
2018-08-06T23:05:24.680Z,20.60
2018-08-06T23:07:53.973Z,20.70
2018-08-06T23:10:23.365Z,20.90
2018-08-06T23:12:52.696Z,20.90
2018-08-06T23:15:22.033Z,20.90
2018-08-06T23:17:51.402Z,21.00
2018-08-06T23:20:20.762Z,21.10
2018-08-06T23:22:50.134Z,21.10
2018-08-06T23:25:21.501Z,21.00
2018-08-06T23:27:50.902Z,20.90
2018-08-06T23:30:20.319Z,20.80
2018-08-06T23:32:49.618Z,20.50
2018-08-06T23:35:18.941Z,20.60
2018-08-06T23:37:48.283Z,20.50
2018-08-06T23:40:17.684Z,20.60
2018-08-06T23:42:46.985Z,20.80
2018-08-06T23:45:16.614Z,20.60
2018-08-06T23:47:45.989Z,20.50
2018-08-06T23:50:15.931Z,20.60
2018-08-06T23:52:46.271Z,20.30
2018-08-06T23:55:17.122Z,20.00
2018-08-06T23:57:46.677Z,19.60
